Time;durP1;ratioP1;P1;durP2;ratioP2;P2;SDS_P1;SDS_P2;PMS_P1;PMS_P2;Temp;Humidity;BMP_temperature;BMP_pressure;BME280_temperature;BME280_humidity;BME280_pressure;Samples;Min_cycle;Max_cycle;Signal;HPM_P1;HPM_P2
2022/11/17 00:01:04;;;;;;;7.30;4.30;;;;;;;8.95;81.94;98020.30;24554;1317;3026267;-66
2022/11/17 00:03:34;;;;;;;5.30;2.80;;;;;;;8.84;82.76;98022.34;24585;1334;3052917;-69
2022/11/17 00:06:04;;;;;;;5.70;3.30;;;;;;;9.37;81.43;98010.25;24669;1324;3029576;-68
2022/11/17 00:08:33;;;;;;;5.70;3.80;;;;;;;9.84;79.58;97994.75;24593;1334;3027510;-68
2022/11/17 00:11:05;;;;;;;5.60;3.40;;;;;;;9.89;79.18;97992.42;24613;1334;3029284;-66
2022/11/17 00:16:22;;;;;;;6.80;3.90;;;;;;;9.60;79.90;97992.20;24501;1336;3069108;-66
2022/11/17 00:21:40;;;;;;;7.20;4.30;;;;;;;9.17;81.66;98001.85;24499;1333;3058077;-70
2022/11/17 00:24:09;;;;;;;5.00;3.10;;;;;;;9.08;82.12;98001.48;24570;1334;3026162;-68
2022/11/17 00:27:00;;;;;;;5.00;3.20;;;;;;;9.54;81.07;97992.32;24567;1337;3047931;-69
2022/11/17 00:29:28;;;;;;;6.10;4.00;;;;;;;10.00;78.99;97980.71;24590;1326;3056347;-68
2022/11/17 00:35:05;;;;;;;7.60;4.90;;;;;;;9.73;79.30;97978.14;24594;1336;3053454;-65
2022/11/17 00:37:36;;;;;;;8.20;5.30;;;;;;;9.40;80.65;97986.61;24534;1324;3028705;-65
2022/11/17 00:40:05;;;;;;;9.50;5.30;;;;;;;9.20;81.59;97989.02;24586;1334;3026288;-68
2022/11/17 00:42:34;;;;;;;11.40;6.10;;;;;;;9.02;82.33;97987.11;24563;1334;3027070;-67
2022/11/17 00:45:04;;;;;;;5.30;3.00;;;;;;;8.81;83.66;97994.17;24545;1326;3025989;-66
2022/11/17 00:47:34;;;;;;;8.90;3.50;;;;;;;9.40;82.72;97983.79;24602;1334;3052931;-69
2022/11/17 00:50:04;;;;;;;7.50;4.60;;;;;;;10.01;80.46;97972.73;24560;1333;3028192;-65
2022/11/17 00:52:33;;;;;;;8.40;4.90;;;;;;;9.93;79.58;97971.80;24583;1332;3025928;-68
2022/11/17 00:55:03;;;;;;;9.30;6.00;;;;;;;9.85;79.98;97971.26;24597;1324;3025862;-68
2022/11/17 00:57:32;;;;;;;9.60;5.50;;;;;;;9.46;81.05;97976.48;24552;1334;3048680;-74
2022/11/17 01:00:01;;;;;;;8.60;5.60;;;;;;;9.20;82.60;97987.61;24553;1339;3025941;-69
2022/11/17 01:02:30;;;;;;;11.10;5.70;;;;;;;9.00;83.68;97992.31;24559;1326;3051725;-66
2022/11/17 01:04:59;;;;;;;7.00;3.70;;;;;;;8.95;84.34;97992.52;24622;1333;3026874;-67
2022/11/17 01:07:27;;;;;;;7.50;4.70;;;;;;;9.31;83.40;97983.10;24541;1340;3049593;-68
2022/11/17 01:09:57;;;;;;;8.10;4.70;;;;;;;9.81;81.97;97974.54;24585;1330;3026130;-66
2022/11/17 01:12:27;;;;;;;11.30;6.60;;;;;;;9.82;81.19;97972.09;24558;1334;3026516;-69
2022/11/17 01:14:56;;;;;;;14.20;7.80;;;;;;;9.57;81.75;97968.11;24551;1327;3025966;-65
2022/11/17 01:17:25;;;;;;;10.50;6.20;;;;;;;9.46;82.85;97972.61;24578;1324;3026518;-69
2022/11/17 01:19:54;;;;;;;10.00;5.50;;;;;;;9.36;83.13;97967.48;24555;1340;3048481;-66
2022/11/17 01:22:24;;;;;;;10.40;6.20;;;;;;;9.11;83.90;97969.79;24527;1330;3029803;-66
2022/11/17 01:24:52;;;;;;;5.70;3.60;;;;;;;9.14;84.41;97970.45;24567;1326;3025825;-68
2022/11/17 01:27:22;;;;;;;6.60;3.50;;;;;;;9.56;83.23;97963.79;24556;1324;3048871;-68
2022/11/17 01:29:51;;;;;;;7.50;4.50;;;;;;;10.08;81.26;97957.30;24533;1333;3026430;-66
2022/11/17 01:32:20;;;;;;;8.40;4.60;;;;;;;10.20;80.29;97954.95;24492;1333;3025992;-67
2022/11/17 01:34:49;;;;;;;8.50;5.30;;;;;;;9.98;80.40;97958.68;24547;1324;3048584;-69
2022/11/17 01:37:18;;;;;;;7.20;4.90;;;;;;;9.63;81.65;97962.02;24507;1316;3028600;-65
2022/11/17 01:39:48;;;;;;;8.10;5.40;;;;;;;9.48;82.82;97962.91;24613;1334;3052088;-68
2022/11/17 01:42:19;;;;;;;7.90;5.40;;;;;;;9.40;83.23;97962.52;24564;1334;3025770;-71
2022/11/17 01:44:56;;;;;;;4.30;2.80;;;;;;;9.23;84.19;97967.44;24560;1324;3050913;-67
2022/11/17 01:47:36;;;;;;;4.80;3.40;;;;;;;9.80;82.89;97954.50;24624;1334;3052075;-69
2022/11/17 01:50:10;;;;;;;6.90;3.70;;;;;;;10.19;80.86;97945.72;24568;1333;3048908;-67
2022/11/17 01:52:40;;;;;;;5.50;3.60;;;;;;;10.16;80.58;97943.02;24512;1332;3068793;-71
2022/11/17 01:55:09;;;;;;;7.70;4.30;;;;;;;10.10;80.87;97942.85;24567;1325;3028910;-67
2022/11/17 01:57:49;;;;;;;5.70;3.80;;;;;;;9.90;81.42;97942.66;24546;1334;3026949;-69
2022/11/17 02:00:19;;;;;;;5.50;3.50;;;;;;;9.78;81.77;97945.63;24571;1324;3053321;-70
2022/11/17 02:02:47;;;;;;;5.60;3.90;;;;;;;9.65;82.27;97944.94;24533;1334;3025838;-68
2022/11/17 02:05:27;;;;;;;3.70;2.20;;;;;;;9.59;82.56;97944.48;24580;1333;3055461;-69
2022/11/17 02:07:56;;;;;;;2.90;2.30;;;;;;;10.15;81.12;97937.48;24529;1327;3052780;-68
2022/11/17 02:10:26;;;;;;;4.30;2.80;;;;;;;10.57;79.21;97935.05;24505;1329;3028850;-70
2022/11/17 02:12:55;;;;;;;4.70;3.20;;;;;;;10.57;78.91;97934.56;24551;1333;3056625;-67
2022/11/17 02:15:30;;;;;;;5.70;3.90;;;;;;;10.45;79.19;97929.77;24582;1333;3026877;-70
2022/11/17 02:17:59;;;;;;;5.40;3.50;;;;;;;10.21;79.49;97931.73;24620;1324;3027254;-71
2022/11/17 02:21:00;;;;;;;7.90;4.60;;;;;;;10.03;80.07;97927.27;24470;1336;3028068;-71
2022/11/17 02:24:05;;;;;;;6.10;4.10;;;;;;;9.71;81.48;97928.04;24558;1326;3051630;-69
2022/11/17 02:26:47;;;;;;;3.80;2.20;;;;;;;9.61;82.26;97920.08;24432;1339;3047844;-70
2022/11/17 02:29:36;;;;;;;4.20;3.10;;;;;;;10.30;80.58;97910.75;24531;1317;3068481;-70
2022/11/17 02:32:05;;;;;;;4.50;2.90;;;;;;;10.71;78.36;97901.66;24580;1334;3050662;-67
2022/11/17 02:35:03;;;;;;;4.80;3.20;;;;;;;10.57;78.41;97902.35;24575;1333;3027936;-70
2022/11/17 02:37:51;;;;;;;7.30;4.30;;;;;;;10.34;79.53;97903.95;24459;1320;3051885;-66
2022/11/17 02:40:47;;;;;;;6.30;3.90;;;;;;;10.18;79.91;97906.30;24535;1330;3055279;-68
2022/11/17 02:46:11;;;;;;;8.70;5.10;;;;;;;9.66;81.97;97909.15;24604;1322;3052316;-69
2022/11/17 02:48:43;;;;;;;4.70;2.80;;;;;;;9.58;83.23;97906.98;24594;1327;3048961;-69
2022/11/17 02:51:19;;;;;;;4.70;2.80;;;;;;;10.17;81.42;97890.75;24553;1327;3026294;-71
2022/11/17 02:53:52;;;;;;;5.60;3.60;;;;;;;10.52;79.50;97877.55;24605;1329;3049037;-68
2022/11/17 02:56:22;;;;;;;8.50;4.30;;;;;;;10.49;79.61;97882.00;24545;1334;3055623;-68
2022/11/17 02:58:55;;;;;;;8.00;4.70;;;;;;;10.33;80.32;97889.61;24595;1316;3028222;-70
2022/11/17 03:01:52;;;;;;;8.30;4.40;;;;;;;10.12;80.67;97887.73;24561;1332;3049118;-68
2022/11/17 03:04:25;;;;;;;7.30;4.90;;;;;;;9.87;81.82;97892.11;24564;1325;3056468;-70
2022/11/17 03:07:26;;;;;;;9.80;5.00;;;;;;;9.63;82.85;97897.13;24579;1325;3052802;-70
2022/11/17 03:10:16;;;;;;;5.60;3.20;;;;;;;9.41;84.46;97901.06;24607;1333;3052637;-71
2022/11/17 03:13:10;;;;;;;5.80;3.30;;;;;;;9.99;82.93;97894.23;24578;1337;3051961;-66
2022/11/17 03:15:49;;;;;;;5.10;3.50;;;;;;;10.16;81.71;97884.76;24560;1333;3053640;-66
2022/11/17 03:18:41;;;;;;;6.80;4.30;;;;;;;10.14;81.54;97880.95;24520;1338;3049279;-70
2022/11/17 03:21:18;;;;;;;6.10;3.60;;;;;;;9.88;82.53;97882.17;24547;1324;3067227;-72
2022/11/17 03:24:04;;;;;;;7.80;4.60;;;;;;;9.80;82.85;97883.58;24610;1327;3049021;-72
2022/11/17 03:26:37;;;;;;;8.40;4.00;;;;;;;9.43;84.18;97887.61;24515;1329;3056275;-66
2022/11/17 03:29:09;;;;;;;6.40;3.90;;;;;;;9.27;85.18;97887.85;24616;1323;3026632;-68
2022/11/17 03:31:39;;;;;;;4.30;2.70;;;;;;;9.15;86.04;97887.23;24569;1335;3028678;-67
2022/11/17 03:34:09;;;;;;;4.30;2.20;;;;;;;9.55;85.15;97883.32;24518;1326;3025312;-68
2022/11/17 03:36:40;;;;;;;4.80;3.10;;;;;;;10.07;82.70;97870.83;24506;1336;3052493;-66
2022/11/17 03:39:34;;;;;;;4.10;2.80;;;;;;;10.18;82.04;97870.81;24516;1333;3026784;-67
2022/11/17 03:42:14;;;;;;;6.00;3.60;;;;;;;9.79;82.88;97878.09;24580;1322;3051603;-68
2022/11/17 03:44:46;;;;;;;4.70;3.40;;;;;;;9.58;84.03;97882.00;24560;1334;3051995;-67
2022/11/17 03:47:15;;;;;;;6.40;3.30;;;;;;;9.45;84.71;97883.80;24573;1340;3025978;-66
2022/11/17 03:49:55;;;;;;;6.30;3.20;;;;;;;9.30;85.20;97883.58;24463;1334;3026369;-70
2022/11/17 03:52:25;;;;;;;3.60;2.40;;;;;;;9.18;86.05;97891.02;24678;1330;3052159;-70
2022/11/17 03:54:54;;;;;;;4.40;2.80;;;;;;;9.60;84.85;97888.98;24498;1340;3026188;-72
2022/11/17 03:57:30;;;;;;;6.30;3.30;;;;;;;10.19;83.19;97889.44;24569;1333;3028084;-67
2022/11/17 04:00:06;;;;;;;5.90;3.70;;;;;;;10.37;81.88;97884.60;24611;1337;3049285;-68
2022/11/17 04:02:53;;;;;;;5.60;3.90;;;;;;;9.92;82.82;97885.52;24534;1333;3056847;-69
2022/11/17 04:05:22;;;;;;;7.10;4.40;;;;;;;9.84;83.32;97890.39;24530;1331;3052854;-67
2022/11/17 04:07:51;;;;;;;6.20;3.90;;;;;;;9.56;84.31;97893.70;24626;1334;3026564;-66
2022/11/17 04:10:22;;;;;;;3.90;2.70;;;;;;;9.45;85.22;97895.66;24600;1330;3055918;-67
2022/11/17 04:15:55;;;;;;;4.30;3.20;;;;;;;10.38;82.16;97881.19;24545;1334;3053351;-67
2022/11/17 04:18:28;;;;;;;5.90;3.60;;;;;;;10.24;81.99;97885.80;24533;1334;3051922;-67
2022/11/17 04:20:57;;;;;;;6.80;3.40;;;;;;;10.20;82.22;97885.80;24572;1333;3025371;-69
2022/11/17 04:23:27;;;;;;;5.80;4.20;;;;;;;10.06;82.14;97885.27;24517;1329;3052323;-66
2022/11/17 04:28:46;;;;;;;4.60;2.40;;;;;;;9.40;85.14;97897.27;24536;1333;3052583;-69
2022/11/17 04:31:21;;;;;;;3.20;2.40;;;;;;;9.88;84.37;97892.69;24617;1340;3026504;-70
2022/11/17 04:33:52;;;;;;;3.80;2.40;;;;;;;10.49;81.94;97876.22;24538;1324;3068924;-68
2022/11/17 04:36:23;;;;;;;5.40;3.00;;;;;;;10.47;81.33;97874.30;24577;1337;3028763;-69
2022/11/17 04:38:55;;;;;;;7.30;4.80;;;;;;;10.29;81.24;97884.22;24593;1334;3026966;-67
2022/11/17 04:44:15;;;;;;;9.40;5.00;;;;;;;9.47;84.85;97893.77;24598;1340;3052959;-68
2022/11/17 04:46:47;;;;;;;7.70;3.50;;;;;;;9.34;85.82;97898.27;24547;1334;3025975;-64
2022/11/17 04:49:17;;;;;;;11.20;5.20;;;;;;;10.09;83.25;97889.19;24526;1333;3026345;-69
2022/11/17 04:51:46;;;;;;;10.70;4.90;;;;;;;10.67;80.64;97879.60;24512;1333;3028780;-69
2022/11/17 04:54:17;;;;;;;8.50;4.60;;;;;;;10.24;81.02;97889.16;24547;1334;3026418;-70
2022/11/17 04:56:47;;;;;;;11.20;5.60;;;;;;;10.05;82.05;97896.02;24604;1326;3054061;-69
2022/11/17 04:59:16;;;;;;;10.40;5.00;;;;;;;9.91;82.51;97896.14;24523;1334;3027579;-70
2022/11/17 05:01:46;;;;;;;11.60;5.90;;;;;;;9.78;82.67;97896.83;24502;1339;3028766;-67
2022/11/17 05:07:04;;;;;;;5.60;3.20;;;;;;;10.29;82.38;97889.32;24505;1335;3049295;-68
2022/11/17 05:09:34;;;;;;;6.30;3.80;;;;;;;10.54;80.16;97887.22;24513;1328;3026290;-66
2022/11/17 05:14:53;;;;;;;10.80;5.90;;;;;;;10.42;80.57;97894.70;24491;1333;3056524;-69
2022/11/17 05:17:24;;;;;;;17.70;8.20;;;;;;;10.06;80.96;97894.30;24586;1337;3025775;-67
2022/11/17 05:19:53;;;;;;;16.00;7.00;;;;;;;9.81;82.12;97896.77;24631;1333;3025854;-69
2022/11/17 05:25:10;;;;;;;10.90;5.50;;;;;;;10.24;81.97;97900.58;23895;1316;4224461;-69
2022/11/17 05:27:39;;;;;;;9.90;4.90;;;;;;;10.75;79.82;97893.80;24545;1334;3049197;-71
2022/11/17 05:30:09;;;;;;;10.80;6.00;;;;;;;10.70;79.44;97898.46;24533;1330;3024900;-71
2022/11/17 05:32:39;;;;;;;14.70;6.70;;;;;;;10.37;79.95;97904.04;24690;1334;3068934;-71
2022/11/17 05:35:08;;;;;;;13.10;6.10;;;;;;;9.95;81.28;97904.52;24549;1330;3028750;-68
2022/11/17 05:37:38;;;;;;;11.10;6.10;;;;;;;9.65;82.43;97913.30;24520;1334;3028623;-71
2022/11/17 05:40:08;;;;;;;8.90;4.40;;;;;;;9.46;84.64;97918.63;24576;1334;3026235;-67
2022/11/17 05:42:40;;;;;;;10.00;5.00;;;;;;;9.97;82.62;97914.34;24553;1334;3049640;-71
2022/11/17 05:45:09;;;;;;;11.70;6.00;;;;;;;10.24;81.34;97911.74;24590;1317;3028033;-69
2022/11/17 05:47:38;;;;;;;10.80;5.40;;;;;;;10.19;81.29;97911.42;24504;1338;3068928;-70
2022/11/17 05:50:08;;;;;;;9.80;5.20;;;;;;;10.07;81.55;97910.48;24612;1331;3026581;-69
2022/11/17 05:52:38;;;;;;;12.60;6.60;;;;;;;9.97;81.25;97913.31;24571;1333;3026500;-71
2022/11/17 05:55:07;;;;;;;12.30;6.70;;;;;;;9.65;82.49;97923.45;24574;1338;3026010;-69
2022/11/17 05:57:36;;;;;;;7.00;4.00;;;;;;;9.29;84.32;97927.82;24536;1324;3050805;-66
2022/11/17 06:00:07;;;;;;;7.70;4.20;;;;;;;9.88;83.37;97922.23;24608;1324;3028868;-69
2022/11/17 06:02:44;;;;;;;11.20;5.30;;;;;;;10.27;81.49;97911.13;24477;1317;3069493;-68
2022/11/17 06:05:13;;;;;;;13.10;6.70;;;;;;;10.23;81.35;97911.31;24641;1330;3026231;-69
2022/11/17 06:07:46;;;;;;;17.30;8.10;;;;;;;10.09;81.65;97911.40;24520;1326;3027008;-67
2022/11/17 06:10:16;;;;;;;18.90;8.60;;;;;;;9.86;82.11;97918.05;24491;1330;3027251;-66
2022/11/17 06:12:52;;;;;;;18.30;8.60;;;;;;;9.88;81.19;97919.61;24519;1339;3052967;-68
2022/11/17 06:15:22;;;;;;;17.30;7.10;;;;;;;9.66;82.26;97933.46;24542;1331;3028425;-70
2022/11/17 06:17:55;;;;;;;13.10;5.60;;;;;;;9.99;81.95;97927.31;24511;1338;3025784;-68
2022/11/17 06:20:34;;;;;;;10.70;5.90;;;;;;;10.22;80.58;97919.61;24548;1329;3029188;-71
2022/11/17 06:23:04;;;;;;;11.20;5.20;;;;;;;10.00;81.01;97916.34;24607;1335;3069624;-66
2022/11/17 06:25:34;;;;;;;10.90;5.30;;;;;;;9.87;81.58;97913.92;24567;1332;3024846;-67
2022/11/17 06:28:07;;;;;;;11.30;5.40;;;;;;;9.68;82.32;97917.94;24539;1330;3026656;-66
2022/11/17 06:30:37;;;;;;;13.20;5.80;;;;;;;9.48;82.71;97911.48;24561;1330;3026317;-69
2022/11/17 06:33:09;;;;;;;7.10;4.10;;;;;;;9.39;83.08;97914.42;24593;1323;3026204;-68
2022/11/17 06:35:38;;;;;;;10.20;4.60;;;;;;;9.72;83.27;97910.92;24535;1330;3056606;-68
2022/11/17 06:38:08;;;;;;;16.40;6.90;;;;;;;10.13;81.82;97896.95;24546;1337;3026162;-70
2022/11/17 06:40:37;;;;;;;17.50;10.10;;;;;;;10.26;80.71;97897.73;24561;1334;3028849;-67
2022/11/17 06:43:09;;;;;;;20.30;9.00;;;;;;;10.02;81.07;97898.73;24540;1335;3025897;-70
2022/11/17 06:45:40;;;;;;;16.10;8.50;;;;;;;9.80;81.76;97902.47;24591;1338;3052283;-68
2022/11/17 06:48:14;;;;;;;16.50;8.30;;;;;;;9.62;81.95;97899.36;24597;1326;3026431;-70
2022/11/17 06:50:43;;;;;;;13.90;6.80;;;;;;;9.33;83.39;97901.34;24621;1334;3026544;-70
2022/11/17 06:53:12;;;;;;;10.50;5.90;;;;;;;9.52;84.06;97904.90;24568;1337;3028367;-68
2022/11/17 06:55:41;;;;;;;11.40;7.00;;;;;;;10.16;81.93;97896.52;24573;1337;3052420;-71
2022/11/17 06:58:10;;;;;;;12.70;6.60;;;;;;;10.27;80.12;97903.22;24617;1327;3025668;-68
2022/11/17 07:00:43;;;;;;;13.50;6.90;;;;;;;9.90;80.94;97902.81;24592;1330;3053364;-68
2022/11/17 07:03:12;;;;;;;13.40;8.50;;;;;;;9.74;81.96;97900.65;24637;1337;3026126;-70
2022/11/17 07:05:41;;;;;;;14.90;8.10;;;;;;;9.46;82.44;97903.77;24645;1333;3056535;-71
2022/11/17 07:08:10;;;;;;;9.80;5.10;;;;;;;9.34;83.13;97905.61;24501;1340;3027939;-69
2022/11/17 07:10:39;;;;;;;13.00;6.80;;;;;;;9.91;82.59;97904.16;24631;1330;3026029;-72
2022/11/17 07:13:08;;;;;;;15.80;8.00;;;;;;;9.98;81.34;97894.48;24621;1330;3055979;-69
2022/11/17 07:15:39;;;;;;;18.60;9.30;;;;;;;10.00;81.44;97886.64;24629;1333;3028607;-69
2022/11/17 07:18:08;;;;;;;18.90;10.30;;;;;;;9.85;81.62;97893.08;24609;1334;3026112;-68
2022/11/17 07:20:37;;;;;;;18.80;10.40;;;;;;;9.75;81.75;97901.83;24652;1332;3056670;-70
2022/11/17 07:23:07;;;;;;;19.30;11.10;;;;;;;9.52;81.69;97912.56;24623;1330;3028294;-68
2022/11/17 07:25:36;;;;;;;12.20;7.10;;;;;;;9.29;83.10;97916.29;24568;1324;3049929;-69
2022/11/17 07:28:05;;;;;;;16.00;7.90;;;;;;;9.90;82.23;97913.27;24703;1338;3028592;-70
2022/11/17 07:30:35;;;;;;;15.30;9.30;;;;;;;10.29;79.96;97905.73;24581;1331;3068517;-71
2022/11/17 07:33:04;;;;;;;20.50;10.50;;;;;;;10.08;80.30;97915.55;24574;1323;3027057;-69
2022/11/17 07:35:37;;;;;;;19.30;9.90;;;;;;;9.66;81.23;97918.80;24621;1330;3026461;-68
2022/11/17 07:38:06;;;;;;;17.10;9.30;;;;;;;9.58;81.86;97922.25;24577;1324;3028281;-67
2022/11/17 07:40:35;;;;;;;18.50;9.60;;;;;;;9.29;82.60;97922.44;24581;1337;3049469;-67
2022/11/17 07:43:04;;;;;;;20.10;10.70;;;;;;;8.99;83.99;97933.16;24559;1328;3028028;-68
2022/11/17 07:45:35;;;;;;;12.80;6.90;;;;;;;8.79;84.79;97933.00;24536;1329;3067759;-69
2022/11/17 07:48:05;;;;;;;20.50;9.80;;;;;;;9.33;83.03;97923.34;24596;1337;3029118;-70
2022/11/17 07:50:38;;;;;;;19.00;10.50;;;;;;;9.83;81.57;97910.21;24600;1333;3025904;-70
2022/11/17 07:53:07;;;;;;;25.60;12.00;;;;;;;9.81;80.65;97914.81;24583;1324;3026568;-69
2022/11/17 07:55:36;;;;;;;28.90;13.70;;;;;;;9.60;81.11;97916.46;24567;1325;3026829;-70
2022/11/17 07:58:05;;;;;;;24.20;12.30;;;;;;;9.16;83.18;97921.52;24565;1326;3025761;-70
2022/11/17 08:00:35;;;;;;;25.20;12.70;;;;;;;9.15;83.08;97919.84;24591;1337;3052947;-70
2022/11/17 08:03:05;;;;;;;18.10;8.80;;;;;;;8.86;84.37;97932.29;24605;1334;3027968;-70
2022/11/17 08:05:35;;;;;;;20.10;9.90;;;;;;;9.29;83.63;97929.11;24567;1335;3026456;-69
2022/11/17 08:08:06;;;;;;;23.10;10.60;;;;;;;10.03;80.71;97925.38;24568;1334;3026465;-73
2022/11/17 08:10:35;;;;;;;23.20;11.80;;;;;;;9.99;79.64;97917.12;24638;1330;3027506;-71
2022/11/17 08:13:05;;;;;;;19.40;11.30;;;;;;;9.49;81.59;97918.55;24577;1326;3028289;-73
2022/11/17 09:02:45;;;;;;;15.00;7.90;;;;;;;7.57;92.98;97926.06;30772;1338;3012975;-72
2022/11/17 09:05:14;;;;;;;17.90;8.00;;;;;;;8.52;90.02;97918.45;24454;1336;3025974;-71
2022/11/17 09:07:44;;;;;;;16.30;8.30;;;;;;;9.35;85.71;97912.70;24510;1337;3025872;-74
2022/11/17 09:10:13;;;;;;;20.40;9.30;;;;;;;9.11;85.20;97913.02;24515;1341;3026720;-66
2022/11/17 09:12:43;;;;;;;19.20;10.30;;;;;;;9.05;85.58;97914.88;24490;1337;3068723;-73
2022/11/17 09:15:13;;;;;;;20.60;11.00;;;;;;;9.05;85.60;97901.98;23803;1336;4275132;-69
2022/11/17 09:17:46;;;;;;;16.70;7.70;;;;;;;8.94;85.97;97901.40;24480;1336;3030398;-71
2022/11/17 09:20:16;;;;;;;15.40;7.60;;;;;;;9.20;85.52;97896.29;24511;1336;3026134;-72
2022/11/17 09:22:45;;;;;;;17.40;8.70;;;;;;;9.81;83.61;97889.02;24488;1335;3029038;-68
2022/11/17 09:25:17;;;;;;;15.80;7.90;;;;;;;9.92;82.60;97887.27;24555;1333;3028304;-70
2022/11/17 09:27:48;;;;;;;15.50;8.80;;;;;;;9.90;82.36;97886.55;24514;1334;3052458;-71
2022/11/17 09:30:20;;;;;;;16.70;9.00;;;;;;;9.72;82.78;97895.96;24463;1337;3026060;-72
2022/11/17 09:32:50;;;;;;;14.50;7.40;;;;;;;9.54;83.34;97900.54;24706;1336;3025987;-70
2022/11/17 09:35:19;;;;;;;12.90;6.40;;;;;;;9.65;83.35;97905.05;24736;1323;3026049;-69
2022/11/17 09:37:48;;;;;;;13.80;6.70;;;;;;;10.08;81.60;97900.27;24635;1330;3025026;-72
2022/11/17 09:40:18;;;;;;;14.10;7.30;;;;;;;10.54;80.13;97891.90;24558;1327;3049748;-71
2022/11/17 09:42:46;;;;;;;12.00;6.60;;;;;;;10.55;79.32;97896.61;24570;1340;3027004;-71
2022/11/17 09:45:24;;;;;;;14.60;7.20;;;;;;;10.15;79.19;97898.86;24567;1333;3025235;-72
2022/11/17 09:47:55;;;;;;;17.30;8.40;;;;;;;9.74;79.52;97903.63;24589;1327;3050642;-71
2022/11/17 09:50:36;;;;;;;16.90;8.00;;;;;;;9.49;80.52;97909.16;24602;1338;3025442;-69
2022/11/17 09:53:20;;;;;;;15.50;9.00;;;;;;;9.26;81.10;97907.98;24586;1331;3049794;-70
2022/11/17 09:55:51;;;;;;;10.90;6.80;;;;;;;9.02;82.19;97913.88;24586;1343;3068725;-72
2022/11/17 09:58:20;;;;;;;16.60;8.20;;;;;;;9.39;81.23;97912.90;24636;1325;3026391;-71
2022/11/17 10:00:51;;;;;;;18.40;8.70;;;;;;;9.63;79.47;97909.95;24622;1323;3026446;-71
2022/11/17 10:03:33;;;;;;;13.20;6.40;;;;;;;9.62;79.36;97908.64;24750;1330;3067865;-73
2022/11/17 10:06:07;;;;;;;13.10;6.80;;;;;;;9.44;79.39;97910.23;24880;1341;3050586;-71
2022/11/17 10:08:41;;;;;;;13.00;7.80;;;;;;;8.98;80.22;97919.28;25390;1341;3025786;-70
2022/11/17 10:11:31;;;;;;;12.00;7.40;;;;;;;8.76;81.27;97931.46;24664;1334;3051560;-72
2022/11/17 10:14:11;;;;;;;8.50;5.70;;;;;;;8.46;82.24;97932.71;24565;1343;3052991;-71
2022/11/17 10:16:49;;;;;;;9.70;4.90;;;;;;;8.38;82.77;97923.36;24656;1325;3050445;-70
2022/11/17 10:19:20;;;;;;;6.10;3.20;;;;;;;8.43;82.87;97922.48;24678;1325;3055599;-71
2022/11/17 10:22:09;;;;;;;4.50;2.30;;;;;;;9.17;81.00;97911.48;24606;1343;3026283;-74
2022/11/17 10:24:45;;;;;;;4.80;2.40;;;;;;;9.46;78.59;97909.05;24557;1330;3069445;-72
2022/11/17 10:27:23;;;;;;;4.30;2.40;;;;;;;9.54;78.12;97913.77;24540;1326;3049877;-70
2022/11/17 10:30:05;;;;;;;4.80;2.60;;;;;;;9.23;78.54;97912.59;24605;1333;3057819;-68
2022/11/17 10:32:37;;;;;;;3.00;2.10;;;;;;;8.89;79.63;97910.75;24648;1333;3052951;-72
2022/11/17 10:35:17;;;;;;;2.90;2.00;;;;;;;8.80;80.30;97908.33;24578;1334;3025921;-71
2022/11/17 10:38:05;;;;;;;3.10;2.10;;;;;;;8.56;81.40;97922.73;24557;1340;3050549;-72
2022/11/17 10:40:37;;;;;;;2.70;1.60;;;;;;;8.43;82.38;97918.27;24604;1327;3051629;-71
2022/11/17 10:43:12;;;;;;;1.80;1.20;;;;;;;8.51;82.00;97907.23;24567;1340;3026440;-69
2022/11/17 10:45:44;;;;;;;1.60;1.10;;;;;;;8.99;80.34;97902.11;24631;1335;3068817;-71
2022/11/17 10:48:31;;;;;;;2.40;1.40;;;;;;;9.47;78.13;97899.88;24622;1335;3026096;-75
2022/11/17 10:51:00;;;;;;;2.40;1.70;;;;;;;9.37;77.70;97906.29;24580;1333;3056384;-73
2022/11/17 10:53:31;;;;;;;2.60;1.40;;;;;;;9.19;78.39;97904.20;24592;1334;3026532;-72
2022/11/17 10:56:32;;;;;;;2.70;1.60;;;;;;;9.01;78.48;97904.01;24617;1340;3026531;-70
2022/11/17 10:59:15;;;;;;;2.70;1.80;;;;;;;8.85;79.10;97896.41;24545;1324;3050752;-70
2022/11/17 11:01:47;;;;;;;2.60;2.10;;;;;;;8.77;79.77;97898.55;24595;1334;3052946;-73
2022/11/17 11:04:33;;;;;;;3.30;2.20;;;;;;;8.62;80.32;97904.63;24910;1325;3026815;-72
2022/11/17 11:07:06;;;;;;;3.00;1.80;;;;;;;8.48;80.86;97915.12;24510;1330;3071192;-71
2022/11/17 11:09:37;;;;;;;4.40;2.60;;;;;;;8.81;80.50;97920.10;24568;1333;3025833;-70
2022/11/17 11:12:09;;;;;;;5.00;2.30;;;;;;;9.26;79.39;97924.40;24550;1331;3029190;-71
2022/11/17 11:14:40;;;;;;;4.10;2.80;;;;;;;9.33;78.69;97924.21;24549;1335;3028973;-72
2022/11/17 11:17:13;;;;;;;3.10;2.10;;;;;;;9.24;78.67;97927.59;24555;1329;3026270;-70
2022/11/17 11:19:51;;;;;;;3.70;2.70;;;;;;;8.82;79.57;97932.59;24586;1325;3025999;-71
2022/11/17 11:22:28;;;;;;;5.00;3.40;;;;;;;8.75;80.65;97935.39;24597;1329;3052884;-71
2022/11/17 11:25:09;;;;;;;5.80;3.30;;;;;;;8.56;80.73;97928.27;24563;1330;3049024;-71
2022/11/17 11:28:00;;;;;;;3.90;2.40;;;;;;;8.42;81.24;97926.56;24485;1326;3068713;-70
2022/11/17 11:30:33;;;;;;;3.30;1.80;;;;;;;8.31;81.65;97929.31;24585;1337;3049958;-72
2022/11/17 11:33:05;;;;;;;3.10;1.50;;;;;;;8.82;80.62;97930.64;24580;1330;3026091;-73
2022/11/17 11:35:58;;;;;;;4.00;2.40;;;;;;;9.13;78.27;97921.45;24574;1333;3026526;-71
2022/11/17 11:38:55;;;;;;;3.20;1.80;;;;;;;8.94;78.31;97920.61;24570;1337;3053076;-68
2022/11/17 11:41:35;;;;;;;4.10;2.30;;;;;;;8.70;79.22;97923.73;24606;1333;3050274;-71
2022/11/17 11:44:27;;;;;;;4.20;2.80;;;;;;;8.40;80.31;97931.95;24627;1337;3052242;-71
2022/11/17 11:47:14;;;;;;;3.40;2.00;;;;;;;8.20;81.06;97934.48;24596;1334;3049820;-71
2022/11/17 11:49:51;;;;;;;2.80;2.00;;;;;;;7.90;81.97;97930.41;24559;1333;3068865;-71
2022/11/17 11:52:24;;;;;;;2.30;1.80;;;;;;;7.70;82.71;97933.27;24566;1325;3050755;-69
2022/11/17 11:54:56;;;;;;;2.30;1.40;;;;;;;7.68;83.22;97938.00;24580;1337;3025982;-72
2022/11/17 11:57:29;;;;;;;2.80;1.40;;;;;;;8.14;81.88;97927.02;24585;1333;3028906;-71
2022/11/17 12:00:06;;;;;;;2.70;1.60;;;;;;;8.51;79.89;97915.27;24568;1333;3026546;-69
2022/11/17 12:02:59;;;;;;;4.10;2.00;;;;;;;8.63;79.62;97924.61;24584;1334;3050859;-70
2022/11/17 12:05:35;;;;;;;2.70;1.90;;;;;;;8.49;79.47;97935.63;24575;1330;3053230;-72
2022/11/17 12:08:14;;;;;;;3.00;2.10;;;;;;;8.25;80.01;97940.92;24559;1337;3049374;-72
2022/11/17 12:10:48;;;;;;;3.40;2.50;;;;;;;7.89;81.29;97943.61;24560;1325;3069517;-72
2022/11/17 12:13:17;;;;;;;;;;;;;;;7.77;81.72;97941.80;24566;1332;3049613;-72
2022/11/17 12:15:46;;;;;;;4.40;2.30;;;;;;;7.42;82.90;97941.21;24594;1340;3026030;-71
2022/11/17 12:18:15;;;;;;;2.70;1.60;;;;;;;7.35;83.57;97943.48;24575;1324;3028959;-71
2022/11/17 12:21:11;;;;;;;4.00;2.00;;;;;;;7.74;83.14;97947.29;24540;1334;3049990;-70
2022/11/17 12:24:11;;;;;;;4.20;2.60;;;;;;;8.31;80.47;97935.93;24546;1332;3056329;-73
2022/11/17 12:26:40;;;;;;;4.20;3.20;;;;;;;7.87;80.64;97933.75;24595;1334;3053300;-71
2022/11/17 12:29:18;;;;;;;7.20;4.50;;;;;;;7.45;81.64;97930.40;24550;1330;3028552;-71
2022/11/17 12:31:53;;;;;;;6.40;4.00;;;;;;;7.25;82.66;97938.59;24558;1334;3056742;-72
2022/11/17 12:34:32;;;;;;;7.90;5.10;;;;;;;7.13;82.86;97942.58;24553;1339;3052700;-71
2022/11/17 12:37:05;;;;;;;11.60;6.10;;;;;;;6.88;83.43;97946.20;24586;1318;3053846;-72
2022/11/17 12:39:54;;;;;;;10.10;6.30;;;;;;;6.76;84.31;97958.75;24574;1335;3051442;-71
2022/11/17 12:42:24;;;;;;;11.80;6.30;;;;;;;7.23;83.64;97966.74;24617;1317;3053075;-72
2022/11/17 12:44:57;;;;;;;12.70;7.10;;;;;;;7.72;81.54;97957.55;24550;1330;3026581;-71
2022/11/17 12:47:38;;;;;;;29.30;14.30;;;;;;;7.73;80.54;97965.33;24569;1334;3026153;-66
2022/11/17 12:50:39;;;;;;;29.40;13.50;;;;;;;7.18;81.25;97971.63;24561;1333;3049276;-64
2022/11/17 12:53:08;;;;;;;25.40;13.00;;;;;;;6.85;82.53;97972.19;24595;1335;3056514;-64
2022/11/17 12:55:47;;;;;;;21.20;11.10;;;;;;;6.60;83.38;97983.28;24567;1324;3026299;-65
2022/11/17 12:58:33;;;;;;;20.90;10.80;;;;;;;6.55;83.22;97979.83;24604;1334;3050913;-66
2022/11/17 13:01:22;;;;;;;12.40;5.90;;;;;;;6.30;84.17;97977.16;24578;1334;3055705;-65
2022/11/17 13:04:02;;;;;;;10.40;5.70;;;;;;;6.80;82.63;97966.95;24481;1324;3053162;-66
2022/11/17 13:06:31;;;;;;;12.70;5.80;;;;;;;6.96;81.02;97954.92;24569;1337;3055133;-66